sensor_id;sensor_type;location;lat;lon;timestamp;pressure;altitude;pressure_sealevel;temperature;humidity
66524;BME280;53350;52.210;5.160;2023-11-19T00:00:40;100765.00;;;14.69;93.72
66524;BME280;53350;52.210;5.160;2023-11-19T00:03:07;100765.84;;;14.69;93.72
66524;BME280;53350;52.210;5.160;2023-11-19T00:05:33;100761.53;;;14.68;93.67
66524;BME280;53350;52.210;5.160;2023-11-19T00:08:00;100753.66;;;14.71;93.59
66524;BME280;53350;52.210;5.160;2023-11-19T00:10:27;100762.31;;;14.72;93.36
66524;BME280;53350;52.210;5.160;2023-11-19T00:12:55;100768.47;;;14.68;93.23
66524;BME280;53350;52.210;5.160;2023-11-19T00:15:22;100775.13;;;14.76;92.55
66524;BME280;53350;52.210;5.160;2023-11-19T00:17:49;100777.75;;;14.75;92.32
66524;BME280;53350;52.210;5.160;2023-11-19T00:20:17;100774.34;;;14.73;92.54
66524;BME280;53350;52.210;5.160;2023-11-19T00:22:43;100764.03;;;14.71;92.68
66524;BME280;53350;52.210;5.160;2023-11-19T00:25:13;100757.13;;;14.72;92.26
66524;BME280;53350;52.210;5.160;2023-11-19T00:27:40;100758.00;;;14.71;92.56
66524;BME280;53350;52.210;5.160;2023-11-19T00:30:11;100747.63;;;14.71;92.79
66524;BME280;53350;52.210;5.160;2023-11-19T00:32:39;100745.03;;;14.71;92.94
66524;BME280;53350;52.210;5.160;2023-11-19T00:35:06;100751.06;;;14.71;92.49
66524;BME280;53350;52.210;5.160;2023-11-19T00:37:33;100745.94;;;14.70;92.62
66524;BME280;53350;52.210;5.160;2023-11-19T00:39:59;100739.06;;;14.69;92.60
66524;BME280;53350;52.210;5.160;2023-11-19T00:42:26;100739.06;;;14.69;92.59
66524;BME280;53350;52.210;5.160;2023-11-19T00:44:52;100744.16;;;14.72;92.27
66524;BME280;53350;52.210;5.160;2023-11-19T00:47:21;100744.22;;;14.70;92.29
66524;BME280;53350;52.210;5.160;2023-11-19T00:49:48;100742.44;;;14.71;92.54
66524;BME280;53350;52.210;5.160;2023-11-19T00:52:15;100739.81;;;14.72;92.30
66524;BME280;53350;52.210;5.160;2023-11-19T00:54:41;100735.50;;;14.71;92.17
66524;BME280;53350;52.210;5.160;2023-11-19T00:57:08;100732.19;;;14.68;91.85
66524;BME280;53350;52.210;5.160;2023-11-19T00:59:34;100733.88;;;14.69;92.10
66524;BME280;53350;52.210;5.160;2023-11-19T01:02:01;100735.59;;;14.68;91.70
66524;BME280;53350;52.210;5.160;2023-11-19T01:04:33;100733.06;;;14.67;91.47
66524;BME280;53350;52.210;5.160;2023-11-19T01:06:59;100733.97;;;14.66;91.39
66524;BME280;53350;52.210;5.160;2023-11-19T01:09:26;100738.16;;;14.70;91.08
66524;BME280;53350;52.210;5.160;2023-11-19T01:11:53;100738.25;;;14.67;90.92
66524;BME280;53350;52.210;5.160;2023-11-19T01:14:19;100730.53;;;14.65;90.99
66524;BME280;53350;52.210;5.160;2023-11-19T01:16:46;100719.38;;;14.63;91.27
66524;BME280;53350;52.210;5.160;2023-11-19T01:19:12;100717.59;;;14.64;91.04
66524;BME280;53350;52.210;5.160;2023-11-19T01:21:40;100709.00;;;14.63;91.01
66524;BME280;53350;52.210;5.160;2023-11-19T01:24:07;100705.50;;;14.64;90.61
66524;BME280;53350;52.210;5.160;2023-11-19T01:26:35;100698.69;;;14.60;91.03
66524;BME280;53350;52.210;5.160;2023-11-19T01:29:01;100709.06;;;14.60;91.00
66524;BME280;53350;52.210;5.160;2023-11-19T01:31:28;100701.28;;;14.60;90.81
66524;BME280;53350;52.210;5.160;2023-11-19T01:33:55;100704.72;;;14.60;90.35
66524;BME280;53350;52.210;5.160;2023-11-19T01:36:21;100710.00;;;14.57;90.82
66524;BME280;53350;52.210;5.160;2023-11-19T01:38:50;100707.47;;;14.56;90.68
66524;BME280;53350;52.210;5.160;2023-11-19T01:41:16;100709.44;;;14.48;91.47
66524;BME280;53350;52.210;5.160;2023-11-19T01:43:42;100707.69;;;14.48;91.18
66524;BME280;53350;52.210;5.160;2023-11-19T01:46:13;100710.31;;;14.47;91.04
66524;BME280;53350;52.210;5.160;2023-11-19T01:48:42;100718.03;;;14.50;90.44
66524;BME280;53350;52.210;5.160;2023-11-19T01:51:11;100712.06;;;14.46;90.65
66524;BME280;53350;52.210;5.160;2023-11-19T01:53:39;100715.59;;;14.43;90.29
66524;BME280;53350;52.210;5.160;2023-11-19T01:56:09;100719.88;;;14.44;90.18
66524;BME280;53350;52.210;5.160;2023-11-19T01:58:36;100716.56;;;14.39;90.06
66524;BME280;53350;52.210;5.160;2023-11-19T02:01:04;100723.63;;;14.36;90.37
66524;BME280;53350;52.210;5.160;2023-11-19T02:03:32;100710.59;;;14.37;89.94
66524;BME280;53350;52.210;5.160;2023-11-19T02:05:59;100706.31;;;14.36;89.42
66524;BME280;53350;52.210;5.160;2023-11-19T02:08:26;100707.53;;;14.24;90.19
66524;BME280;53350;52.210;5.160;2023-11-19T02:10:53;100704.09;;;14.24;89.80
66524;BME280;53350;52.210;5.160;2023-11-19T02:13:23;100702.50;;;14.20;89.97
66524;BME280;53350;52.210;5.160;2023-11-19T02:15:50;100705.97;;;14.19;89.49
66524;BME280;53350;52.210;5.160;2023-11-19T02:18:18;100711.16;;;14.19;89.17
66524;BME280;53350;52.210;5.160;2023-11-19T02:20:45;100712.13;;;14.15;88.90
66524;BME280;53350;52.210;5.160;2023-11-19T02:23:13;100722.59;;;14.12;88.91
66524;BME280;53350;52.210;5.160;2023-11-19T02:25:39;100720.03;;;14.10;88.98
66524;BME280;53350;52.210;5.160;2023-11-19T02:28:08;100720.91;;;14.09;88.36
66524;BME280;53350;52.210;5.160;2023-11-19T02:30:37;100726.06;;;14.11;87.87
66524;BME280;53350;52.210;5.160;2023-11-19T02:33:03;100734.00;;;14.04;88.19
66524;BME280;53350;52.210;5.160;2023-11-19T02:35:31;100725.63;;;13.96;88.87
66524;BME280;53350;52.210;5.160;2023-11-19T02:37:59;100728.28;;;13.93;88.60
66524;BME280;53350;52.210;5.160;2023-11-19T02:40:25;100709.41;;;13.89;88.71
66524;BME280;53350;52.210;5.160;2023-11-19T02:42:52;100705.94;;;13.90;88.63
66524;BME280;53350;52.210;5.160;2023-11-19T02:45:21;100707.69;;;13.88;88.38
66524;BME280;53350;52.210;5.160;2023-11-19T02:47:47;100711.16;;;13.87;88.39
66524;BME280;53350;52.210;5.160;2023-11-19T02:50:14;100709.50;;;13.86;88.24
66524;BME280;53350;52.210;5.160;2023-11-19T02:52:40;100718.97;;;13.86;88.09
66524;BME280;53350;52.210;5.160;2023-11-19T02:55:07;100707.84;;;13.84;88.22
66524;BME280;53350;52.210;5.160;2023-11-19T02:57:35;100722.53;;;13.83;88.12
66524;BME280;53350;52.210;5.160;2023-11-19T03:00:02;100720.81;;;13.82;87.60
66524;BME280;53350;52.210;5.160;2023-11-19T03:02:39;100712.19;;;13.83;87.21
66524;BME280;53350;52.210;5.160;2023-11-19T03:05:10;100715.69;;;13.81;87.48
66524;BME280;53350;52.210;5.160;2023-11-19T03:07:37;100711.41;;;13.80;87.27
66524;BME280;53350;52.210;5.160;2023-11-19T03:10:04;100716.47;;;13.83;86.86
66524;BME280;53350;52.210;5.160;2023-11-19T03:12:32;100719.28;;;13.75;86.69
66524;BME280;53350;52.210;5.160;2023-11-19T03:14:58;100722.63;;;13.80;86.41
66524;BME280;53350;52.210;5.160;2023-11-19T03:17:24;100728.72;;;13.78;86.41
66524;BME280;53350;52.210;5.160;2023-11-19T03:19:53;100714.13;;;13.75;86.29
66524;BME280;53350;52.210;5.160;2023-11-19T03:22:19;100715.13;;;13.69;86.76
66524;BME280;53350;52.210;5.160;2023-11-19T03:24:46;100712.63;;;13.66;86.49
66524;BME280;53350;52.210;5.160;2023-11-19T03:27:12;100702.41;;;13.62;86.48
66524;BME280;53350;52.210;5.160;2023-11-19T03:29:39;100699.88;;;13.60;86.63
66524;BME280;53350;52.210;5.160;2023-11-19T03:32:05;100699.03;;;13.58;86.69
66524;BME280;53350;52.210;5.160;2023-11-19T03:34:32;100693.13;;;13.54;86.91
66524;BME280;53350;52.210;5.160;2023-11-19T03:37:00;100685.34;;;13.54;86.24
66524;BME280;53350;52.210;5.160;2023-11-19T03:39:26;100687.94;;;13.54;86.60
66524;BME280;53350;52.210;5.160;2023-11-19T03:41:53;100683.59;;;13.55;86.42
66524;BME280;53350;52.210;5.160;2023-11-19T03:44:19;100682.72;;;13.56;86.10
66524;BME280;53350;52.210;5.160;2023-11-19T03:46:46;100691.41;;;13.53;86.17
66524;BME280;53350;52.210;5.160;2023-11-19T03:49:13;100706.97;;;13.52;86.14
66524;BME280;53350;52.210;5.160;2023-11-19T03:51:39;100711.31;;;13.51;86.26
66524;BME280;53350;52.210;5.160;2023-11-19T03:54:07;100715.63;;;13.51;85.77
66524;BME280;53350;52.210;5.160;2023-11-19T03:56:34;100720.84;;;13.49;85.41
66524;BME280;53350;52.210;5.160;2023-11-19T03:59:00;100721.81;;;13.45;85.51
66524;BME280;53350;52.210;5.160;2023-11-19T04:01:27;100723.56;;;13.45;85.62
66524;BME280;53350;52.210;5.160;2023-11-19T04:03:54;100726.19;;;13.43;85.50
66524;BME280;53350;52.210;5.160;2023-11-19T04:06:21;100724.47;;;13.42;85.67
66524;BME280;53350;52.210;5.160;2023-11-19T04:08:47;100717.63;;;13.39;85.36
66524;BME280;53350;52.210;5.160;2023-11-19T04:11:16;100724.56;;;13.39;85.38
66524;BME280;53350;52.210;5.160;2023-11-19T04:13:42;100729.88;;;13.33;85.84
66524;BME280;53350;52.210;5.160;2023-11-19T04:16:09;100725.53;;;13.35;85.30
66524;BME280;53350;52.210;5.160;2023-11-19T04:18:35;100737.63;;;13.33;85.48
66524;BME280;53350;52.210;5.160;2023-11-19T04:21:05;100735.78;;;13.38;84.75
66524;BME280;53350;52.210;5.160;2023-11-19T04:23:31;100723.88;;;13.31;85.35
66524;BME280;53350;52.210;5.160;2023-11-19T04:25:58;100729.13;;;13.28;85.50
66524;BME280;53350;52.210;5.160;2023-11-19T04:28:25;100730.81;;;13.29;85.51
66524;BME280;53350;52.210;5.160;2023-11-19T04:30:52;100731.00;;;13.22;85.60
66524;BME280;53350;52.210;5.160;2023-11-19T04:33:19;100721.47;;;13.23;85.52
66524;BME280;53350;52.210;5.160;2023-11-19T04:35:45;100727.50;;;13.23;85.33
66524;BME280;53350;52.210;5.160;2023-11-19T04:38:12;100724.91;;;13.23;85.14
66524;BME280;53350;52.210;5.160;2023-11-19T04:40:38;100738.75;;;13.22;85.34
66524;BME280;53350;52.210;5.160;2023-11-19T04:43:05;100737.88;;;13.22;85.31
66524;BME280;53350;52.210;5.160;2023-11-19T04:45:33;100732.72;;;13.22;85.07
66524;BME280;53350;52.210;5.160;2023-11-19T04:48:00;100732.78;;;13.19;85.35
66524;BME280;53350;52.210;5.160;2023-11-19T04:50:26;100728.44;;;13.21;85.01
66524;BME280;53350;52.210;5.160;2023-11-19T04:52:53;100720.59;;;13.24;84.71
66524;BME280;53350;52.210;5.160;2023-11-19T04:55:21;100723.22;;;13.22;84.84
66524;BME280;53350;52.210;5.160;2023-11-19T04:57:47;100727.56;;;13.20;85.09
66524;BME280;53350;52.210;5.160;2023-11-19T05:00:14;100739.63;;;13.21;84.78
66524;BME280;53350;52.210;5.160;2023-11-19T05:02:42;100729.28;;;13.21;85.30
66524;BME280;53350;52.210;5.160;2023-11-19T05:05:08;100736.97;;;13.25;84.75
66524;BME280;53350;52.210;5.160;2023-11-19T05:07:35;100739.56;;;13.25;85.11
66524;BME280;53350;52.210;5.160;2023-11-19T05:10:01;100741.34;;;13.22;85.24
66524;BME280;53350;52.210;5.160;2023-11-19T05:12:29;100742.97;;;13.25;84.84
66524;BME280;53350;52.210;5.160;2023-11-19T05:14:56;100731.91;;;13.20;85.33
66524;BME280;53350;52.210;5.160;2023-11-19T05:17:23;100741.47;;;13.18;85.12
66524;BME280;53350;52.210;5.160;2023-11-19T05:19:51;100731.94;;;13.18;85.07
66524;BME280;53350;52.210;5.160;2023-11-19T05:22:17;100730.16;;;13.20;84.21
66524;BME280;53350;52.210;5.160;2023-11-19T05:24:45;100733.66;;;13.19;83.93
66524;BME280;53350;52.210;5.160;2023-11-19T05:27:13;100727.75;;;13.14;83.71
66524;BME280;53350;52.210;5.160;2023-11-19T05:29:40;100742.41;;;13.14;83.98
66524;BME280;53350;52.210;5.160;2023-11-19T05:32:08;100735.69;;;13.07;83.69
66524;BME280;53350;52.210;5.160;2023-11-19T05:34:34;100738.16;;;13.11;82.86
66524;BME280;53350;52.210;5.160;2023-11-19T05:37:02;100743.41;;;13.08;82.98
66524;BME280;53350;52.210;5.160;2023-11-19T05:39:30;100744.34;;;13.05;83.25
66524;BME280;53350;52.210;5.160;2023-11-19T05:41:57;100742.66;;;13.03;83.05
66524;BME280;53350;52.210;5.160;2023-11-19T05:44:23;100738.47;;;12.97;83.13
66524;BME280;53350;52.210;5.160;2023-11-19T05:46:50;100747.09;;;12.98;83.09
66524;BME280;53350;52.210;5.160;2023-11-19T05:49:16;100748.78;;;12.99;82.75
66524;BME280;53350;52.210;5.160;2023-11-19T05:51:43;100754.00;;;12.97;82.49
66524;BME280;53350;52.210;5.160;2023-11-19T05:54:10;100750.50;;;13.00;82.39
66524;BME280;53350;52.210;5.160;2023-11-19T05:56:38;100752.97;;;13.04;81.86
66524;BME280;53350;52.210;5.160;2023-11-19T05:59:05;100737.56;;;13.00;82.42
66524;BME280;53350;52.210;5.160;2023-11-19T06:01:40;100746.16;;;13.00;82.36
66524;BME280;53350;52.210;5.160;2023-11-19T06:04:07;100725.50;;;12.99;82.23
66524;BME280;53350;52.210;5.160;2023-11-19T06:06:33;100735.84;;;12.99;82.52
66524;BME280;53350;52.210;5.160;2023-11-19T06:09:00;100730.81;;;12.94;82.45
66524;BME280;53350;52.210;5.160;2023-11-19T06:11:33;100745.44;;;12.95;82.43
66524;BME280;53350;52.210;5.160;2023-11-19T06:14:00;100734.25;;;12.95;82.00
66524;BME280;53350;52.210;5.160;2023-11-19T06:16:26;100745.56;;;12.91;82.38
66524;BME280;53350;52.210;5.160;2023-11-19T06:18:53;100729.13;;;12.92;82.36
66524;BME280;53350;52.210;5.160;2023-11-19T06:21:19;100731.72;;;12.92;82.50
66524;BME280;53350;52.210;5.160;2023-11-19T06:23:46;100735.19;;;12.92;82.43
66524;BME280;53350;52.210;5.160;2023-11-19T06:26:12;100746.38;;;12.91;82.35
66524;BME280;53350;52.210;5.160;2023-11-19T06:28:40;100743.84;;;12.90;82.28
66524;BME280;53350;52.210;5.160;2023-11-19T06:31:07;100753.34;;;12.89;82.38
66524;BME280;53350;52.210;5.160;2023-11-19T06:33:33;100742.13;;;12.88;82.38
66524;BME280;53350;52.210;5.160;2023-11-19T06:36:00;100748.19;;;12.89;82.46
66524;BME280;53350;52.210;5.160;2023-11-19T06:38:26;100742.13;;;12.88;82.52
66524;BME280;53350;52.210;5.160;2023-11-19T06:40:53;100745.63;;;12.87;82.75
66524;BME280;53350;52.210;5.160;2023-11-19T06:43:19;100749.88;;;12.88;82.71
66524;BME280;53350;52.210;5.160;2023-11-19T06:45:48;100748.19;;;12.89;82.85
66524;BME280;53350;52.210;5.160;2023-11-19T06:48:14;100744.72;;;12.88;82.88
66524;BME280;53350;52.210;5.160;2023-11-19T06:50:41;100754.22;;;12.88;82.84
66524;BME280;53350;52.210;5.160;2023-11-19T06:53:07;100755.03;;;12.90;82.64
66524;BME280;53350;52.210;5.160;2023-11-19T06:55:35;100755.97;;;12.87;82.75
66524;BME280;53350;52.210;5.160;2023-11-19T06:58:02;100751.59;;;12.90;82.52
66524;BME280;53350;52.210;5.160;2023-11-19T07:00:28;100757.56;;;12.92;82.54
66524;BME280;53350;52.210;5.160;2023-11-19T07:02:59;100760.16;;;12.92;82.64
66524;BME280;53350;52.210;5.160;2023-11-19T07:05:25;100761.03;;;12.92;82.47
66524;BME280;53350;52.210;5.160;2023-11-19T07:07:52;100770.47;;;12.95;82.13
66524;BME280;53350;52.210;5.160;2023-11-19T07:10:19;100770.38;;;12.98;82.01
66524;BME280;53350;52.210;5.160;2023-11-19T07:12:45;100762.66;;;12.96;81.91
66524;BME280;53350;52.210;5.160;2023-11-19T07:15:12;100763.63;;;12.92;82.43
66524;BME280;53350;52.210;5.160;2023-11-19T07:17:39;100776.47;;;12.95;82.21
66524;BME280;53350;52.210;5.160;2023-11-19T07:20:08;100780.66;;;13.01;81.87
66524;BME280;53350;52.210;5.160;2023-11-19T07:22:38;100777.09;;;13.05;81.59
66524;BME280;53350;52.210;5.160;2023-11-19T07:25:05;100777.03;;;13.08;81.38
66524;BME280;53350;52.210;5.160;2023-11-19T07:27:31;100782.25;;;13.07;81.91
66524;BME280;53350;52.210;5.160;2023-11-19T07:29:58;100775.31;;;13.07;81.54
66524;BME280;53350;52.210;5.160;2023-11-19T07:32:24;100779.66;;;13.07;81.57
66524;BME280;53350;52.210;5.160;2023-11-19T07:34:50;100780.53;;;13.05;81.58
66524;BME280;53350;52.210;5.160;2023-11-19T07:37:18;100790.78;;;13.09;81.55
66524;BME280;53350;52.210;5.160;2023-11-19T07:39:45;100794.22;;;13.09;81.41
66524;BME280;53350;52.210;5.160;2023-11-19T07:42:11;100788.09;;;13.13;81.05
66524;BME280;53350;52.210;5.160;2023-11-19T07:44:37;100794.88;;;13.19;80.89
66524;BME280;53350;52.210;5.160;2023-11-19T07:47:04;100788.03;;;13.16;81.46
66524;BME280;53350;52.210;5.160;2023-11-19T07:49:30;100787.13;;;13.17;81.30
66524;BME280;53350;52.210;5.160;2023-11-19T07:51:57;100788.94;;;13.15;81.39
66524;BME280;53350;52.210;5.160;2023-11-19T07:54:25;100789.66;;;13.20;81.71
66524;BME280;53350;52.210;5.160;2023-11-19T07:56:51;100787.91;;;13.22;81.26
66524;BME280;53350;52.210;5.160;2023-11-19T07:59:17;100783.56;;;13.23;81.31
66524;BME280;53350;52.210;5.160;2023-11-19T08:01:44;100781.78;;;13.25;80.93
66524;BME280;53350;52.210;5.160;2023-11-19T08:04:10;100786.91;;;13.28;80.50
66524;BME280;53350;52.210;5.160;2023-11-19T08:06:37;100779.09;;;13.30;80.70
66524;BME280;53350;52.210;5.160;2023-11-19T08:09:02;100783.38;;;13.31;81.15
66524;BME280;53350;52.210;5.160;2023-11-19T08:11:30;100784.34;;;13.27;81.15
66524;BME280;53350;52.210;5.160;2023-11-19T08:13:57;100771.38;;;13.28;81.35
66524;BME280;53350;52.210;5.160;2023-11-19T08:16:23;100767.88;;;13.29;81.48
66524;BME280;53350;52.210;5.160;2023-11-19T08:18:50;100772.97;;;13.34;81.27
66524;BME280;53350;52.210;5.160;2023-11-19T08:21:16;100771.25;;;13.33;81.64
66524;BME280;53350;52.210;5.160;2023-11-19T08:23:42;100779.84;;;13.33;81.65
66524;BME280;53350;52.210;5.160;2023-11-19T08:26:09;100780.72;;;13.34;81.66
66524;BME280;53350;52.210;5.160;2023-11-19T08:28:37;100787.56;;;13.36;81.77
66524;BME280;53350;52.210;5.160;2023-11-19T08:31:04;100794.41;;;13.39;81.27
66524;BME280;53350;52.210;5.160;2023-11-19T08:33:30;100794.50;;;13.36;81.75
66524;BME280;53350;52.210;5.160;2023-11-19T08:35:57;100795.25;;;13.39;81.18
66524;BME280;53350;52.210;5.160;2023-11-19T08:38:24;100792.63;;;13.41;81.30
66524;BME280;53350;52.210;5.160;2023-11-19T08:40:50;100802.09;;;13.42;81.33
66524;BME280;53350;52.210;5.160;2023-11-19T08:43:17;100802.88;;;13.46;81.32
66524;BME280;53350;52.210;5.160;2023-11-19T08:45:45;100792.41;;;13.50;81.11
66524;BME280;53350;52.210;5.160;2023-11-19T08:48:11;100796.66;;;13.53;81.09
66524;BME280;53350;52.210;5.160;2023-11-19T08:50:37;100806.84;;;13.59;80.23
66524;BME280;53350;52.210;5.160;2023-11-19T08:53:04;100805.03;;;13.63;80.12
66524;BME280;53350;52.210;5.160;2023-11-19T08:55:32;100805.16;;;13.58;80.80
66524;BME280;53350;52.210;5.160;2023-11-19T08:57:58;100804.94;;;13.67;79.94
66524;BME280;53350;52.210;5.160;2023-11-19T09:00:24;100802.31;;;13.69;80.03
66524;BME280;53350;52.210;5.160;2023-11-19T09:02:52;100798.81;;;13.70;79.84
66524;BME280;53350;52.210;5.160;2023-11-19T09:05:18;100794.44;;;13.72;80.31
66524;BME280;53350;52.210;5.160;2023-11-19T09:07:45;100802.22;;;13.72;80.23
66524;BME280;53350;52.210;5.160;2023-11-19T09:10:11;100800.38;;;13.76;80.39
66524;BME280;53350;52.210;5.160;2023-11-19T09:12:38;100789.31;;;13.70;80.16
66524;BME280;53350;52.210;5.160;2023-11-19T09:15:05;100791.81;;;13.73;79.93
66524;BME280;53350;52.210;5.160;2023-11-19T09:17:32;100789.31;;;13.70;80.40
66524;BME280;53350;52.210;5.160;2023-11-19T09:20:01;100791.00;;;13.71;80.00
66524;BME280;53350;52.210;5.160;2023-11-19T09:22:27;100792.56;;;13.77;79.91
66524;BME280;53350;52.210;5.160;2023-11-19T09:24:54;100788.22;;;13.79;79.96
66524;BME280;53350;52.210;5.160;2023-11-19T09:27:20;100793.38;;;13.81;79.90
66524;BME280;53350;52.210;5.160;2023-11-19T09:29:47;100794.94;;;13.86;79.48
66524;BME280;53350;52.210;5.160;2023-11-19T09:32:15;100796.59;;;13.89;79.31
66524;BME280;53350;52.210;5.160;2023-11-19T09:34:41;100797.28;;;13.96;78.62
66524;BME280;53350;52.210;5.160;2023-11-19T09:37:09;100801.53;;;13.98;78.49
66524;BME280;53350;52.210;5.160;2023-11-19T09:39:35;100799.06;;;13.94;79.07
66524;BME280;53350;52.210;5.160;2023-11-19T09:42:02;100792.91;;;13.98;78.72
66524;BME280;53350;52.210;5.160;2023-11-19T09:44:29;100780.69;;;14.03;78.57
66524;BME280;53350;52.210;5.160;2023-11-19T09:46:57;100793.56;;;14.04;78.40
66524;BME280;53350;52.210;5.160;2023-11-19T09:49:25;100785.72;;;14.07;78.53
66524;BME280;53350;52.210;5.160;2023-11-19T09:51:52;100787.47;;;14.07;78.42
66524;BME280;53350;52.210;5.160;2023-11-19T09:54:20;100781.38;;;14.09;78.53
66524;BME280;53350;52.210;5.160;2023-11-19T09:56:47;100776.13;;;14.11;78.94
66524;BME280;53350;52.210;5.160;2023-11-19T09:59:14;100783.91;;;14.11;78.75
66524;BME280;53350;52.210;5.160;2023-11-19T10:01:41;100776.03;;;14.14;78.64
66524;BME280;53350;52.210;5.160;2023-11-19T10:04:09;100790.53;;;14.21;78.25
66524;BME280;53350;52.210;5.160;2023-11-19T10:06:37;100779.47;;;14.15;78.77
66524;BME280;53350;52.210;5.160;2023-11-19T10:09:05;100779.38;;;14.19;78.52
66524;BME280;53350;52.210;5.160;2023-11-19T10:11:32;100768.97;;;14.21;79.01
66524;BME280;53350;52.210;5.160;2023-11-19T10:13:59;100772.44;;;14.20;78.80
66524;BME280;53350;52.210;5.160;2023-11-19T10:16:28;100767.22;;;14.21;78.76
66524;BME280;53350;52.210;5.160;2023-11-19T10:18:56;100767.94;;;14.26;78.38
66524;BME280;53350;52.210;5.160;2023-11-19T10:21:23;100774.88;;;14.24;78.91
66524;BME280;53350;52.210;5.160;2023-11-19T10:23:50;100770.53;;;14.26;78.91
66524;BME280;53350;52.210;5.160;2023-11-19T10:26:17;100766.13;;;14.29;78.58
66524;BME280;53350;52.210;5.160;2023-11-19T10:28:47;100762.56;;;14.33;78.40
66524;BME280;53350;52.210;5.160;2023-11-19T10:31:13;100764.19;;;14.37;78.25
66524;BME280;53350;52.210;5.160;2023-11-19T10:33:40;100764.75;;;14.47;77.57
66524;BME280;53350;52.210;5.160;2023-11-19T10:36:07;100757.75;;;14.50;77.20
66524;BME280;53350;52.210;5.160;2023-11-19T10:38:35;100756.56;;;14.60;76.40
66524;BME280;53350;52.210;5.160;2023-11-19T10:41:01;100761.72;;;14.62;76.25
66524;BME280;53350;52.210;5.160;2023-11-19T10:43:28;100773.97;;;14.55;76.82
66524;BME280;53350;52.210;5.160;2023-11-19T10:46:09;100762.00;;;14.53;77.49
66524;BME280;53350;52.210;5.160;2023-11-19T10:48:35;100765.56;;;14.49;78.09
66524;BME280;53350;52.210;5.160;2023-11-19T10:51:05;100764.09;;;14.40;78.59
66524;BME280;53350;52.210;5.160;2023-11-19T10:53:33;100768.34;;;14.41;78.72
66524;BME280;53350;52.210;5.160;2023-11-19T10:56:02;100762.25;;;14.43;78.66
66524;BME280;53350;52.210;5.160;2023-11-19T10:58:32;100765.75;;;14.42;78.80
66524;BME280;53350;52.210;5.160;2023-11-19T11:01:02;100760.34;;;14.50;78.51
66524;BME280;53350;52.210;5.160;2023-11-19T11:03:31;100756.06;;;14.48;78.47
66524;BME280;53350;52.210;5.160;2023-11-19T11:06:03;100758.38;;;14.57;77.43
66524;BME280;53350;52.210;5.160;2023-11-19T11:08:30;100754.75;;;14.64;77.18
66524;BME280;53350;52.210;5.160;2023-11-19T11:10:57;100773.41;;;14.75;75.93
66524;BME280;53350;52.210;5.160;2023-11-19T11:13:26;100775.16;;;14.75;76.43
66524;BME280;53350;52.210;5.160;2023-11-19T11:15:55;100767.97;;;14.85;75.27
66524;BME280;53350;52.210;5.160;2023-11-19T11:18:24;100764.44;;;14.86;75.31
66524;BME280;53350;52.210;5.160;2023-11-19T11:20:53;100748.72;;;14.92;74.01
66524;BME280;53350;52.210;5.160;2023-11-19T11:23:38;100754.69;;;14.94;73.58
66524;BME280;53350;52.210;5.160;2023-11-19T11:26:22;100757.34;;;14.92;74.11
66524;BME280;53350;52.210;5.160;2023-11-19T11:28:57;100756.28;;;14.98;73.56
66524;BME280;53350;52.210;5.160;2023-11-19T11:31:36;100764.19;;;14.95;74.35
66524;BME280;53350;52.210;5.160;2023-11-19T11:34:18;100747.63;;;14.99;73.99
66524;BME280;53350;52.210;5.160;2023-11-19T11:36:55;100757.78;;;15.05;73.32
66524;BME280;53350;52.210;5.160;2023-11-19T11:39:24;100743.84;;;15.09;73.04
66524;BME280;53350;52.210;5.160;2023-11-19T11:45:02;100754.06;;;15.14;71.82
66524;BME280;53350;52.210;5.160;2023-11-19T11:48:06;100753.94;;;15.17;71.43
66524;BME280;53350;52.210;5.160;2023-11-19T11:50:47;100752.19;;;15.18;70.89
66524;BME280;53350;52.210;5.160;2023-11-19T11:53:16;100743.50;;;15.19;71.12
66524;BME280;53350;52.210;5.160;2023-11-19T11:55:57;100732.25;;;15.20;71.66
66524;BME280;53350;52.210;5.160;2023-11-19T11:58:29;100742.69;;;15.18;71.90
66524;BME280;53350;52.210;5.160;2023-11-19T12:00:58;100734.03;;;15.18;72.23
66524;BME280;53350;52.210;5.160;2023-11-19T12:03:28;100732.41;;;15.15;72.32
66524;BME280;53350;52.210;5.160;2023-11-19T12:05:56;100727.31;;;15.12;72.73
66524;BME280;53350;52.210;5.160;2023-11-19T12:08:28;100722.22;;;15.09;73.58
66524;BME280;53350;52.210;5.160;2023-11-19T12:10:56;100732.34;;;15.17;73.41
66524;BME280;53350;52.210;5.160;2023-11-19T12:13:24;100715.91;;;15.16;73.55
66524;BME280;53350;52.210;5.160;2023-11-19T12:16:10;100722.75;;;15.19;74.05
66524;BME280;53350;52.210;5.160;2023-11-19T12:18:39;100730.59;;;15.17;73.74
66524;BME280;53350;52.210;5.160;2023-11-19T12:21:07;100726.19;;;15.19;74.15
66524;BME280;53350;52.210;5.160;2023-11-19T12:23:35;100727.91;;;15.20;73.73
66524;BME280;53350;52.210;5.160;2023-11-19T12:26:01;100740.13;;;15.17;74.07
66524;BME280;53350;52.210;5.160;2023-11-19T12:28:28;100734.91;;;15.18;73.98
66524;BME280;53350;52.210;5.160;2023-11-19T12:31:07;100734.78;;;15.21;73.38
66524;BME280;53350;52.210;5.160;2023-11-19T12:33:35;100720.59;;;15.06;73.51
66524;BME280;53350;52.210;5.160;2023-11-19T12:36:03;100736.69;;;15.16;73.10
66524;BME280;53350;52.210;5.160;2023-11-19T12:38:32;100734.13;;;15.15;73.07
66524;BME280;53350;52.210;5.160;2023-11-19T12:41:05;100737.44;;;15.20;72.77
66524;BME280;53350;52.210;5.160;2023-11-19T12:43:32;100724.03;;;15.07;72.84
66524;BME280;53350;52.210;5.160;2023-11-19T12:45:59;100738.69;;;15.08;72.36
66524;BME280;53350;52.210;5.160;2023-11-19T12:48:26;100735.13;;;15.10;71.65
66524;BME280;53350;52.210;5.160;2023-11-19T12:50:53;100734.56;;;15.02;71.41
66524;BME280;53350;52.210;5.160;2023-11-19T12:53:20;100725.28;;;14.95;71.93
66524;BME280;53350;52.210;5.160;2023-11-19T12:55:48;100736.22;;;15.03;70.47